East Charlemont, Massachusetts
Current Conditions -  °F | °C
As of 3:43 AM on Saturday 25 Oct 2014 (Local Time) from KAQW Reporting Station
Moderate Fog Moderate Fog  
Wind Chill: 37°   Ceiling: 100
Heat Index: 37°   Visibility: 0.5mi
Dew Point: 37°   Wind: 0mph
Humidity: 100%   Direction: NA
Pressure: 29.83"   Gusts: NA
Location:  42.6026°N, 72.7442°W
Report Text: KAQW 250743Z AUTO 00000KT 1/2SM FG VV001 03/03 A2983 RMK AO2 T00280028
Loading
Personal Weather Stations






























Interactive Weather Map
Tropical Storm Tracking
New forecast layout! Learn more

10-Day Weather Forecast

Advertisements
Track Severe Weather on mobile